ELF131 USCM-UWKD
Flight info
| Callsign | ELF131 |
|---|---|
| Flight time | N/A |
| Altitude | 38000 |
| Route | NERNI1K NERNI T566 ROGMU N984 NOGBA N985 ORTIM ORTIM1R |
| Aircraft | A20N/M-SDE2E3FGHIRWXY/LB1 |
Departure
| Time | N/A |
|---|---|
| Airport | Magnitogorsk International Airport (USCM) |
Arrival
| Time | 2026-04-28 19:19 |
|---|---|
| Airport | Kazan International Airport (UWKD) |
| Time | Latitude | Longitude | Altitude | Speed | Heading |
|---|---|---|---|---|---|
| 2026-04-28 19:16 | 55.55942 | 49.40433 | 1828 ft | 144 kts | 298° |
| 2026-04-28 19:17 | 55.56489 | 49.39019 | 1660 ft | 137 kts | 287° |
| 2026-04-28 19:17 | 55.56923 | 49.37488 | 1481 ft | 141 kts | 287° |
| 2026-04-28 19:17 | 55.57447 | 49.36005 | 1217 ft | 142 kts | 296° |
| 2026-04-28 19:17 | 55.58005 | 49.34614 | 1058 ft | 136 kts | 300° |
| 2026-04-28 19:18 | 55.58530 | 49.33263 | 900 ft | 134 kts | 302° |
| 2026-04-28 19:18 | 55.59056 | 49.31914 | 724 ft | 132 kts | 302° |
| 2026-04-28 19:18 | 55.59576 | 49.30571 | 570 ft | 132 kts | 303° |
| 2026-04-28 19:18 | 55.60095 | 49.29232 | 431 ft | 125 kts | 302° |
| 2026-04-28 19:19 | 55.60514 | 49.28156 | 413 ft | 83 kts | 304° |
| 2026-04-28 19:19 | 55.60752 | 49.27548 | 405 ft | 47 kts | 304° |
| 2026-04-28 19:19 | 55.60937 | 49.27069 | 393 ft | 45 kts | 304° |
| 2026-04-28 19:19 | 55.61049 | 49.26796 | 392 ft | 14 kts | 321° |
| 2026-04-28 19:20 | 55.61131 | 49.26818 | 391 ft | 13 kts | 34° |
| 2026-04-28 19:20 | 55.61200 | 49.26904 | 394 ft | 11 kts | 38° |
| 2026-04-28 19:20 | 55.61211 | 49.27017 | 396 ft | 10 kts | 113° |
| 2026-04-28 19:20 | 55.61172 | 49.27119 | 395 ft | 11 kts | 126° |
| 2026-04-28 19:21 | 55.61117 | 49.27256 | 399 ft | 16 kts | 125° |
| 2026-04-28 19:21 | 55.61042 | 49.27441 | 398 ft | 20 kts | 125° |
| 2026-04-28 19:21 | 55.60958 | 49.27657 | 401 ft | 23 kts | 125° |
| 2026-04-28 19:22 | 55.60777 | 49.28134 | 412 ft | 23 kts | 122° |
| 2026-04-28 19:22 | 55.60714 | 49.28299 | 412 ft | 26 kts | 126° |
| 2026-04-28 19:22 | 55.60594 | 49.28650 | 415 ft | 26 kts | 102° |
| 2026-04-28 19:22 | 55.60580 | 49.28940 | 417 ft | 22 kts | 94° |
| 2026-04-28 19:23 | 55.60607 | 49.29166 | 415 ft | 18 kts | 46° |
| 2026-04-28 19:23 | 55.60704 | 49.29297 | 420 ft | 17 kts | 34° |
| 2026-04-28 19:23 | 55.60796 | 49.29410 | 419 ft | 14 kts | 45° |
| 2026-04-28 19:23 | 55.60792 | 49.29534 | 417 ft | 10 kts | 123° |
| 2026-04-28 19:24 | 55.60753 | 49.29631 | 414 ft | 12 kts | 123° |
| 2026-04-28 19:24 | 55.60697 | 49.29779 | 422 ft | 17 kts | 124° |
| 2026-04-28 19:24 | 55.60649 | 49.29933 | 426 ft | 11 kts | 89° |
| 2026-04-28 19:24 | 55.60687 | 49.30010 | 427 ft | 4 kts | 34° |